Time;durP1;ratioP1;P1;durP2;ratioP2;P2;SDS_P1;SDS_P2;PMS_P1;PMS_P2;Temp;Humidity;BMP_temperature;BMP_pressure;BME280_temperature;BME280_humidity;BME280_pressure;Samples;Min_cycle;Max_cycle;Signal;HPM_P1;HPM_P2
2022/09/04 00:01:32;;;;;;;3.08;2.78;;;;;;;;;;6172630;23;20765;-79
2022/09/04 00:04:10;;;;;;;5.22;2.85;;;;;;;;;;6174761;23;20179;-80
2022/09/04 00:06:41;;;;;;;3.90;2.42;;;;;;;;;;6174744;23;20500;-80
2022/09/04 00:09:13;;;;;;;3.13;2.58;;;;;;;;;;6174865;23;20218;-79
2022/09/04 00:11:43;;;;;;;3.27;2.57;;;;;;;;;;6172761;23;20241;-79
2022/09/04 00:14:12;;;;;;;5.03;3.00;;;;;;;;;;6175024;23;20175;-79
2022/09/04 00:16:59;;;;;;;3.33;2.77;;;;;;;;;;6174404;23;20163;-79
2022/09/04 00:19:34;;;;;;;4.80;2.43;;;;;;;;;;6174794;23;20140;-79
2022/09/04 00:22:02;;;;;;;4.20;2.70;;;;;;;;;;6174806;23;20612;-79
2022/09/04 00:24:31;;;;;;;3.10;2.78;;;;;;;;;;6176006;23;20178;-79
2022/09/04 00:26:56;;;;;;;3.93;2.70;;;;;;;;;;6176770;23;20155;-79
2022/09/04 00:29:41;;;;;;;2.97;2.53;;;;;;;;;;6176919;23;20155;-80
2022/09/04 00:32:07;;;;;;;3.78;2.88;;;;;;;;;;6176317;23;20186;-80
2022/09/04 00:34:52;;;;;;;3.47;2.92;;;;;;;;;;6175583;23;20507;-80
2022/09/04 00:37:21;;;;;;;3.17;2.88;;;;;;;;;;6175237;23;20384;-79
2022/09/04 00:39:59;;;;;;;4.60;2.57;;;;;;;;;;6174132;23;20166;-80
2022/09/04 00:42:44;;;;;;;2.90;2.53;;;;;;;;;;6175943;23;20143;-80
2022/09/04 00:45:13;;;;;;;3.17;2.40;;;;;;;;;;6173704;23;20226;-80
2022/09/04 00:47:53;;;;;;;2.85;2.58;;;;;;;;;;6175389;23;20181;-80
2022/09/04 00:50:28;;;;;;;3.63;2.60;;;;;;;;;;6174652;23;20640;-80
2022/09/04 00:52:56;;;;;;;3.00;2.70;;;;;;;;;;6176185;23;20176;-80
2022/09/04 00:55:55;;;;;;;3.50;2.73;;;;;;;;;;6176198;23;20178;-80
2022/09/04 00:58:47;;;;;;;3.47;2.60;;;;;;;;;;6094369;23;20187;-81
2022/09/04 01:01:15;;;;;;;4.67;2.67;;;;;;;;;;6130197;23;20183;-80
2022/09/04 01:03:58;;;;;;;5.72;2.90;;;;;;;;;;6173738;23;20187;-80
2022/09/04 01:06:28;;;;;;;4.13;2.87;;;;;;;;;;6174010;23;20186;-80
2022/09/04 01:08:54;;;;;;;3.10;2.83;;;;;;;;;;6174057;23;20187;-80
2022/09/04 01:11:56;;;;;;;4.63;3.20;;;;;;;;;;6176178;23;20198;-80
2022/09/04 01:14:37;;;;;;;5.17;3.00;;;;;;;;;;6175402;23;20170;-80
2022/09/04 01:17:09;;;;;;;5.47;2.80;;;;;;;;;;6173750;23;20159;-80
2022/09/04 01:19:55;;;;;;;4.40;2.87;;;;;;;;;;6174363;23;20166;-79
2022/09/04 01:22:29;;;;;;;5.53;3.00;;;;;;;;;;6173870;23;20181;-79
2022/09/04 01:25:11;;;;;;;4.93;2.80;;;;;;;;;;6175785;23;20640;-79
2022/09/04 01:27:59;;;;;;;4.17;2.70;;;;;;;;;;6173760;23;20213;-79
2022/09/04 01:30:25;;;;;;;5.70;3.10;;;;;;;;;;6175938;23;20153;-79
2022/09/04 01:33:00;;;;;;;5.30;2.80;;;;;;;;;;6174175;23;20195;-79
2022/09/04 01:35:43;;;;;;;4.40;2.80;;;;;;;;;;6173198;23;20233;-80
2022/09/04 01:38:09;;;;;;;5.23;2.90;;;;;;;;;;6173325;23;20214;-80
2022/09/04 01:40:46;;;;;;;3.23;2.50;;;;;;;;;;6175314;23;20155;-80
2022/09/04 01:43:17;;;;;;;3.20;2.90;;;;;;;;;;6175421;23;20166;-79
2022/09/04 01:45:59;;;;;;;4.67;2.90;;;;;;;;;;6173816;23;20155;-80
2022/09/04 01:48:32;;;;;;;3.57;2.80;;;;;;;;;;6173646;23;20360;-79
2022/09/04 01:51:01;;;;;;;3.60;3.00;;;;;;;;;;6175677;23;20159;-79
2022/09/04 01:53:28;;;;;;;5.43;3.13;;;;;;;;;;6175042;23;20175;-81
2022/09/04 01:56:14;;;;;;;5.87;2.93;;;;;;;;;;6173814;23;20892;-80
2022/09/04 01:59:02;;;;;;;3.07;2.70;;;;;;;;;;6175029;23;20240;-80
2022/09/04 02:01:37;;;;;;;3.20;2.90;;;;;;;;;;6156682;23;20175;-79
2022/09/04 02:04:22;;;;;;;3.53;2.70;;;;;;;;;;6173177;23;20442;-80
2022/09/04 02:06:54;;;;;;;3.73;3.20;;;;;;;;;;6173250;23;20721;-80
2022/09/04 02:09:23;;;;;;;4.00;2.80;;;;;;;;;;6173717;23;20155;-80
2022/09/04 02:11:52;;;;;;;3.90;3.20;;;;;;;;;;6175151;23;20162;-81
2022/09/04 02:14:34;;;;;;;3.97;3.17;;;;;;;;;;6175292;23;20529;-79
2022/09/04 02:17:19;;;;;;;6.53;3.30;;;;;;;;;;6173433;23;20526;-79
2022/09/04 02:20:05;;;;;;;4.87;3.30;;;;;;;;;;6173656;23;20240;-79
2022/09/04 02:22:54;;;;;;;4.10;3.13;;;;;;;;;;6174950;23;20246;-79
2022/09/04 02:25:32;;;;;;;6.10;3.03;;;;;;;;;;6105655;23;20658;-79
2022/09/04 02:28:04;;;;;;;3.37;2.90;;;;;;;;;;6172658;23;20171;-79
2022/09/04 02:30:33;;;;;;;3.97;3.13;;;;;;;;;;6174695;23;20147;-80
2022/09/04 02:33:10;;;;;;;3.30;2.93;;;;;;;;;;6173112;23;20166;-79
2022/09/04 02:35:39;;;;;;;3.10;2.70;;;;;;;;;;6172936;23;20233;-81
2022/09/04 02:38:21;;;;;;;3.83;3.07;;;;;;;;;;6174572;23;20190;-79
2022/09/04 02:41:02;;;;;;;4.97;3.30;;;;;;;;;;6173401;23;20159;-79
2022/09/04 02:43:38;;;;;;;3.20;2.90;;;;;;;;;;6174665;23;20225;-79
2022/09/04 02:46:10;;;;;;;3.80;3.50;;;;;;;;;;6174571;23;20162;-79
2022/09/04 02:48:50;;;;;;;4.30;3.47;;;;;;;;;;6172689;23;20194;-80
2022/09/04 02:51:30;;;;;;;4.20;3.10;;;;;;;;;;6174383;23;20139;-79
2022/09/04 02:54:09;;;;;;;4.07;3.07;;;;;;;;;;6172738;23;20193;-80
2022/09/04 02:56:40;;;;;;;3.37;3.07;;;;;;;;;;6174176;23;20177;-79
2022/09/04 02:59:13;;;;;;;5.10;3.13;;;;;;;;;;6174941;23;20681;-81
2022/09/04 03:01:58;;;;;;;4.67;3.30;;;;;;;;;;6173023;23;20159;-81
2022/09/04 03:04:35;;;;;;;3.90;3.40;;;;;;;;;;6173203;23;20264;-80
2022/09/04 03:07:10;;;;;;;5.57;3.40;;;;;;;;;;6172670;23;20158;-79
2022/09/04 03:09:55;;;;;;;4.70;3.30;;;;;;;;;;6175365;23;20590;-80
2022/09/04 03:12:37;;;;;;;5.10;3.60;;;;;;;;;;6172391;23;20614;-80
2022/09/04 03:15:02;;;;;;;5.57;3.30;;;;;;;;;;6174760;23;20179;-80
2022/09/04 03:17:47;;;;;;;4.77;3.43;;;;;;;;;;6172561;23;20251;-79
2022/09/04 03:20:16;;;;;;;5.53;3.47;;;;;;;;;;6173622;23;20159;-79
2022/09/04 03:22:47;;;;;;;5.43;3.37;;;;;;;;;;6173403;23;20159;-81
2022/09/04 03:25:32;;;;;;;3.33;3.03;;;;;;;;;;6173342;23;20181;-82
2022/09/04 03:27:57;;;;;;;3.50;3.20;;;;;;;;;;6172603;23;20248;-80
2022/09/04 03:30:25;;;;;;;3.30;3.00;;;;;;;;;;6173126;23;20852;-79
2022/09/04 03:32:58;;;;;;;4.17;3.40;;;;;;;;;;6174632;23;20562;-79
2022/09/04 03:35:28;;;;;;;5.10;3.50;;;;;;;;;;6174760;23;20229;-80
2022/09/04 03:37:57;;;;;;;7.40;3.43;;;;;;;;;;6172883;23;20193;-80
2022/09/04 03:40:23;;;;;;;3.40;3.10;;;;;;;;;;6174438;23;20618;-79
2022/09/04 03:42:58;;;;;;;3.53;3.03;;;;;;;;;;6172007;23;20159;-79
2022/09/04 03:45:24;;;;;;;6.40;3.40;;;;;;;;;;6174928;23;20250;-79
2022/09/04 03:47:59;;;;;;;3.83;3.43;;;;;;;;;;6174683;23;20155;-79
2022/09/04 03:50:44;;;;;;;7.17;3.20;;;;;;;;;;6172491;23;20159;-79
2022/09/04 03:53:19;;;;;;;4.57;3.70;;;;;;;;;;6174294;23;20633;-79
2022/09/04 03:56:04;;;;;;;4.13;3.30;;;;;;;;;;6174366;23;20435;-79
2022/09/04 03:58:43;;;;;;;3.57;3.23;;;;;;;;;;6174478;23;20187;-80
2022/09/04 04:01:18;;;;;;;5.87;3.23;;;;;;;;;;6174957;23;20209;-79
2022/09/04 04:03:51;;;;;;;6.03;3.20;;;;;;;;;;6174570;23;20833;-79
2022/09/04 04:06:26;;;;;;;4.13;3.50;;;;;;;;;;6174677;23;20604;-79
2022/09/04 04:09:21;;;;;;;5.17;3.50;;;;;;;;;;6174416;23;20185;-79
2022/09/04 04:12:05;;;;;;;3.60;3.30;;;;;;;;;;6174526;23;20213;-79
2022/09/04 04:14:50;;;;;;;5.07;3.57;;;;;;;;;;6174290;23;20723;-80
2022/09/04 04:17:19;;;;;;;4.77;3.93;;;;;;;;;;6176742;23;20183;-79
2022/09/04 04:20:07;;;;;;;5.33;3.80;;;;;;;;;;6176741;23;20154;-80
2022/09/04 04:22:36;;;;;;;4.13;3.40;;;;;;;;;;6176602;23;20135;-80
2022/09/04 04:25:24;;;;;;;4.03;3.63;;;;;;;;;;6176475;23;20569;-81
2022/09/04 04:27:52;;;;;;;6.30;3.40;;;;;;;;;;6102046;23;20159;-80
2022/09/04 04:30:19;;;;;;;4.13;3.73;;;;;;;;;;6174660;23;20198;-79
2022/09/04 04:33:00;;;;;;;4.70;3.37;;;;;;;;;;6175898;23;20155;-80
2022/09/04 04:35:43;;;;;;;4.30;3.77;;;;;;;;;;6176576;23;20430;-79
2022/09/04 04:38:28;;;;;;;4.83;4.00;;;;;;;;;;6176281;23;20189;-80
2022/09/04 04:40:54;;;;;;;5.30;4.10;;;;;;;;;;6174926;23;20865;-80
2022/09/04 04:43:43;;;;;;;5.07;3.97;;;;;;;;;;6174559;23;20166;-80
2022/09/04 04:46:28;;;;;;;4.17;3.70;;;;;;;;;;6120846;23;20167;-80
2022/09/04 04:49:09;;;;;;;7.43;3.90;;;;;;;;;;6174539;23;20621;-80
2022/09/04 04:51:54;;;;;;;5.20;4.10;;;;;;;;;;6173855;23;20210;-80
2022/09/04 04:54:32;;;;;;;4.53;4.00;;;;;;;;;;6175970;23;20445;-80
2022/09/04 04:57:01;;;;;;;4.27;3.87;;;;;;;;;;6175979;23;20506;-80
2022/09/04 04:59:39;;;;;;;4.43;3.87;;;;;;;;;;6176363;23;20202;-79
2022/09/04 05:02:37;;;;;;;4.40;3.93;;;;;;;;;;6174419;23;20161;-80
2022/09/04 05:05:23;;;;;;;6.00;3.70;;;;;;;;;;6094191;23;20178;-80
2022/09/04 05:07:59;;;;;;;4.83;3.90;;;;;;;;;;6175890;23;20159;-80
2022/09/04 05:10:37;;;;;;;4.80;3.80;;;;;;;;;;6176114;23;20159;-80
2022/09/04 05:13:23;;;;;;;5.03;3.70;;;;;;;;;;6175623;23;20143;-80
2022/09/04 05:16:05;;;;;;;3.97;3.50;;;;;;;;;;6154997;23;20166;-81
2022/09/04 05:18:36;;;;;;;3.83;3.53;;;;;;;;;;6175288;23;20175;-80
2022/09/04 05:21:23;;;;;;;4.93;4.10;;;;;;;;;;6174115;23;20162;-80
2022/09/04 05:24:01;;;;;;;7.00;4.37;;;;;;;;;;6173384;23;20182;-80
2022/09/04 05:26:38;;;;;;;5.03;4.07;;;;;;;;;;6173793;23;20169;-80
2022/09/04 05:29:04;;;;;;;4.77;4.20;;;;;;;;;;6173386;23;20157;-80
2022/09/04 05:31:39;;;;;;;4.90;4.00;;;;;;;;;;6175836;23;20195;-80
2022/09/04 05:34:24;;;;;;;8.23;4.00;;;;;;;;;;6173402;23;20183;-79
2022/09/04 05:37:00;;;;;;;4.77;4.20;;;;;;;;;;6175165;23;20159;-79
2022/09/04 05:39:40;;;;;;;4.33;3.90;;;;;;;;;;6173935;23;20512;-79
2022/09/04 05:42:25;;;;;;;7.10;3.90;;;;;;;;;;6175879;23;20132;-79
2022/09/04 05:44:54;;;;;;;5.13;4.00;;;;;;;;;;6175043;23;20174;-79
2022/09/04 05:47:44;;;;;;;5.60;3.87;;;;;;;;;;6173393;23;20174;-80
2022/09/04 05:50:15;;;;;;;5.33;3.93;;;;;;;;;;6173947;23;20159;-79
2022/09/04 05:53:14;;;;;;;6.90;4.17;;;;;;;;;;6174092;23;20210;-79
2022/09/04 05:55:40;;;;;;;5.30;3.53;;;;;;;;;;6111483;23;20162;-81
2022/09/04 05:58:21;;;;;;;5.28;3.95;;;;;;;;;;6173170;23;20419;-80
2022/09/04 06:01:05;;;;;;;6.07;3.92;;;;;;;;;;6174525;23;20182;-80
2022/09/04 06:03:50;;;;;;;6.03;4.45;;;;;;;;;;6175858;23;20178;-80
2022/09/04 06:06:31;;;;;;;4.72;3.75;;;;;;;;;;6173709;23;20575;-80
2022/09/04 06:08:57;;;;;;;4.35;3.95;;;;;;;;;;6175220;23;20143;-80
2022/09/04 06:11:42;;;;;;;4.38;3.85;;;;;;;;;;6175179;23;20159;-80
2022/09/04 06:14:17;;;;;;;6.07;4.03;;;;;;;;;;6173799;23;20208;-82
2022/09/04 06:17:05;;;;;;;4.80;3.95;;;;;;;;;;6173005;23;20165;-79
2022/09/04 06:19:55;;;;;;;5.10;3.60;;;;;;;;;;6173271;23;20159;-80
2022/09/04 06:22:23;;;;;;;4.55;3.80;;;;;;;;;;6158756;23;20155;-82
2022/09/04 06:24:59;;;;;;;5.20;4.03;;;;;;;;;;6173130;23;20186;-80
2022/09/04 06:27:39;;;;;;;4.13;3.72;;;;;;;;;;6173021;23;20250;-80
2022/09/04 06:30:10;;;;;;;4.75;4.00;;;;;;;;;;6173526;23;20158;-80
2022/09/04 06:32:51;;;;;;;7.88;4.10;;;;;;;;;;6174485;23;20197;-79
2022/09/04 06:35:30;;;;;;;4.68;3.92;;;;;;;;;;6174761;23;20171;-80
2022/09/04 06:38:01;;;;;;;4.10;3.70;;;;;;;;;;6174313;23;20239;-80
2022/09/04 06:40:45;;;;;;;5.65;4.03;;;;;;;;;;6174805;23;20150;-81
2022/09/04 06:43:18;;;;;;;5.72;3.85;;;;;;;;;;6173101;23;20182;-82
2022/09/04 06:45:52;;;;;;;5.47;3.90;;;;;;;;;;6174629;23;20155;-80
2022/09/04 06:48:37;;;;;;;7.18;4.20;;;;;;;;;;6173423;23;20163;-79
2022/09/04 06:51:05;;;;;;;4.55;4.15;;;;;;;;;;6173080;23;20170;-79
2022/09/04 06:53:34;;;;;;;4.97;4.43;;;;;;;;;;6173224;23;20627;-79
2022/09/04 06:56:13;;;;;;;4.43;3.90;;;;;;;;;;6175181;23;20225;-81
2022/09/04 06:58:42;;;;;;;6.53;4.30;;;;;;;;;;6173337;23;20190;-79
2022/09/04 07:01:28;;;;;;;5.13;3.95;;;;;;;;;;6175027;23;20201;-80
2022/09/04 07:04:13;;;;;;;4.28;3.88;;;;;;;;;;6172830;23;20519;-79
2022/09/04 07:07:08;;;;;;;4.82;4.32;;;;;;;;;;6174795;23;20155;-79
2022/09/04 07:09:40;;;;;;;5.07;4.10;;;;;;;;;;6142643;23;20635;-80
2022/09/04 07:12:26;;;;;;;6.38;4.03;;;;;;;;;;6173411;23;20155;-79
2022/09/04 07:15:14;;;;;;;7.60;4.65;;;;;;;;;;6114529;23;20186;-79
2022/09/04 07:17:46;;;;;;;5.60;4.72;;;;;;;;;;6174038;23;20178;-78
2022/09/04 07:20:21;;;;;;;6.25;4.28;;;;;;;;;;6172806;23;20159;-79
2022/09/04 07:22:53;;;;;;;5.30;4.15;;;;;;;;;;6172324;23;20245;-80
2022/09/04 07:25:25;;;;;;;6.00;4.55;;;;;;;;;;6172442;23;20210;-80
2022/09/04 07:27:51;;;;;;;5.93;4.43;;;;;;;;;;6175127;23;20139;-80
2022/09/04 07:30:19;;;;;;;5.15;4.22;;;;;;;;;;6174540;23;20208;-80
2022/09/04 07:32:48;;;;;;;6.53;4.65;;;;;;;;;;6175057;23;20342;-80
2022/09/04 07:35:23;;;;;;;7.07;4.28;;;;;;;;;;6176615;23;20236;-80
2022/09/04 07:37:57;;;;;;;5.05;4.18;;;;;;;;;;6174517;23;20182;-80
2022/09/04 07:40:25;;;;;;;4.93;3.78;;;;;;;;;;6175011;23;20143;-80
2022/09/04 07:43:07;;;;;;;4.50;4.10;;;;;;;;;;6174444;23;20163;-79
2022/09/04 07:45:49;;;;;;;5.43;4.20;;;;;;;;;;6175017;23;20538;-80
2022/09/04 07:48:23;;;;;;;4.25;3.85;;;;;;;;;;6174809;23;20372;-80
2022/09/04 07:51:02;;;;;;;6.97;4.57;;;;;;;;;;6176566;23;20159;-80
2022/09/04 07:53:50;;;;;;;6.03;4.05;;;;;;;;;;6174878;23;20179;-80
2022/09/04 07:56:24;;;;;;;6.18;4.20;;;;;;;;;;6176011;23;20143;-80
2022/09/04 07:59:03;;;;;;;5.97;4.20;;;;;;;;;;6177021;23;20171;-79
2022/09/04 08:01:42;;;;;;;4.97;4.40;;;;;;;;;;6175205;23;20649;-79
2022/09/04 08:04:27;;;;;;;5.97;4.25;;;;;;;;;;6177094;23;20240;-80
2022/09/04 08:07:00;;;;;;;6.10;4.10;;;;;;;;;;6176763;23;20650;-80
2022/09/04 08:09:46;;;;;;;5.65;3.92;;;;;;;;;;6177132;23;20623;-79
2022/09/04 08:12:31;;;;;;;6.55;4.05;;;;;;;;;;6176192;23;20143;-79
2022/09/04 08:15:09;;;;;;;7.40;4.28;;;;;;;;;;6176381;23;20433;-79
2022/09/04 08:17:42;;;;;;;5.72;4.20;;;;;;;;;;6175143;23;20213;-80
2022/09/04 08:20:27;;;;;;;5.35;4.07;;;;;;;;;;6174811;23;20167;-80
2022/09/04 08:23:04;;;;;;;7.00;4.10;;;;;;;;;;6174682;23;20163;-81
2022/09/04 08:25:49;;;;;;;4.80;3.97;;;;;;;;;;6177412;23;20646;-79
2022/09/04 08:28:25;;;;;;;6.30;4.35;;;;;;;;;;6175069;23;20171;-79
2022/09/04 08:31:04;;;;;;;4.70;4.20;;;;;;;;;;6177037;23;20146;-80
2022/09/04 08:33:42;;;;;;;4.47;4.07;;;;;;;;;;6176934;23;20177;-80
2022/09/04 08:36:12;;;;;;;5.95;4.28;;;;;;;;;;6175142;23;20182;-79
2022/09/04 08:38:47;;;;;;;4.70;4.18;;;;;;;;;;6177107;23;20213;-79
2022/09/04 08:41:16;;;;;;;5.65;4.22;;;;;;;;;;6175136;23;20586;-80
2022/09/04 08:43:45;;;;;;;6.95;4.50;;;;;;;;;;6176545;23;20493;-79
2022/09/04 08:46:12;;;;;;;5.28;4.35;;;;;;;;;;6174658;23;20166;-79
2022/09/04 08:48:50;;;;;;;4.75;4.00;;;;;;;;;;6177511;23;20155;-80
2022/09/04 08:51:38;;;;;;;5.75;4.45;;;;;;;;;;6174217;23;20167;-80
2022/09/04 08:54:14;;;;;;;6.05;4.07;;;;;;;;;;6174426;23;20266;-80
2022/09/04 08:56:58;;;;;;;6.78;4.78;;;;;;;;;;6174358;23;20159;-79
2022/09/04 08:59:30;;;;;;;4.95;4.20;;;;;;;;;;6174474;23;20202;-80
2022/09/04 09:02:15;;;;;;;4.40;3.92;;;;;;;;;;6174712;23;20254;-80
2022/09/04 09:05:00;;;;;;;6.13;4.50;;;;;;;;;;6176828;23;20502;-80
2022/09/04 09:07:36;;;;;;;5.18;4.45;;;;;;;;;;6176669;23;20208;-81
2022/09/04 09:10:17;;;;;;;5.78;4.00;;;;;;;;;;6174380;23;20155;-80
2022/09/04 09:12:58;;;;;;;4.70;4.25;;;;;;;;;;6176049;23;20154;-81
2022/09/04 09:15:43;;;;;;;6.65;4.20;;;;;;;;;;6176141;23;20205;-80
2022/09/04 09:18:16;;;;;;;6.80;4.40;;;;;;;;;;6175707;23;20641;-81
2022/09/04 09:21:00;;;;;;;6.53;4.10;;;;;;;;;;6176618;23;20457;-79
2022/09/04 09:23:45;;;;;;;6.32;4.22;;;;;;;;;;6175864;23;20139;-79
2022/09/04 09:26:20;;;;;;;6.45;4.32;;;;;;;;;;6175959;23;20154;-79
2022/09/04 09:29:04;;;;;;;5.22;4.57;;;;;;;;;;6175759;23;20159;-79
2022/09/04 09:31:49;;;;;;;5.03;4.47;;;;;;;;;;6175874;23;21007;-79
2022/09/04 09:34:27;;;;;;;5.32;4.28;;;;;;;;;;6175944;23;20202;-81
2022/09/04 09:37:12;;;;;;;7.63;3.80;;;;;;;;;;6174080;23;20571;-79
2022/09/04 09:39:57;;;;;;;5.07;4.57;;;;;;;;;;6174364;23;21070;-80
2022/09/04 09:42:36;;;;;;;5.15;3.97;;;;;;;;;;6173201;23;20625;-79
2022/09/04 09:45:12;;;;;;;4.32;3.60;;;;;;;;;;6173749;23;20183;-80
2022/09/04 09:47:51;;;;;;;6.63;4.10;;;;;;;;;;6175697;23;20266;-79
2022/09/04 09:50:19;;;;;;;4.78;3.78;;;;;;;;;;6175496;23;20170;-80
2022/09/04 09:52:45;;;;;;;5.28;4.30;;;;;;;;;;6175479;23;20155;-80
2022/09/04 09:55:29;;;;;;;4.65;3.80;;;;;;;;;;6175053;23;20260;-79
2022/09/04 09:57:58;;;;;;;6.15;3.45;;;;;;;;;;6174606;23;20217;-79
2022/09/04 10:00:26;;;;;;;4.22;3.35;;;;;;;;;;6175352;23;20173;-80
2022/09/04 10:02:55;;;;;;;3.80;3.30;;;;;;;;;;6174843;23;20588;-80
2022/09/04 10:05:53;;;;;;;5.32;3.97;;;;;;;;;;6173776;23;20185;-80
2022/09/04 10:08:33;;;;;;;5.13;3.88;;;;;;;;;;6174998;23;20154;-80
2022/09/04 10:11:22;;;;;;;4.50;3.40;;;;;;;;;;6173900;23;20309;-79
2022/09/04 10:14:16;;;;;;;4.70;3.33;;;;;;;;;;6173590;23;20269;-79
2022/09/04 10:16:57;;;;;;;5.30;3.67;;;;;;;;;;6174693;23;20151;-80
2022/09/04 10:19:43;;;;;;;4.10;3.33;;;;;;;;;;6172983;23;20193;-80
2022/09/04 10:22:12;;;;;;;4.28;3.45;;;;;;;;;;6172806;23;20219;-79
2022/09/04 10:24:44;;;;;;;5.22;4.00;;;;;;;;;;6174574;23;20171;-80
2022/09/04 10:27:13;;;;;;;4.40;3.92;;;;;;;;;;6174204;23;20170;-80
2022/09/04 10:30:02;;;;;;;4.18;3.80;;;;;;;;;;6172515;23;20666;-80
2022/09/04 10:32:31;;;;;;;3.90;3.50;;;;;;;;;;6174198;23;20148;-81
2022/09/04 10:35:17;;;;;;;5.03;3.63;;;;;;;;;;6172675;23;20258;-80
2022/09/04 10:37:58;;;;;;;3.75;3.45;;;;;;;;;;6172857;23;20182;-80
2022/09/04 10:40:41;;;;;;;3.60;3.30;;;;;;;;;;6172769;23;20607;-79
2022/09/04 10:43:33;;;;;;;4.28;3.83;;;;;;;;;;6172362;23;20599;-79
2022/09/04 10:46:09;;;;;;;4.43;3.65;;;;;;;;;;6129031;23;20197;-79
2022/09/04 10:48:47;;;;;;;5.90;4.00;;;;;;;;;;6172684;23;20151;-80
2022/09/04 10:51:33;;;;;;;6.43;3.80;;;;;;;;;;6172212;23;20163;-79
2022/09/04 10:54:20;;;;;;;4.43;3.80;;;;;;;;;;6172201;23;20281;-79
2022/09/04 10:56:55;;;;;;;5.90;3.40;;;;;;;;;;6172457;23;20229;-80
2022/09/04 10:59:40;;;;;;;5.57;3.47;;;;;;;;;;6174217;23;20171;-79
2022/09/04 11:02:17;;;;;;;4.70;3.20;;;;;;;;;;6172783;23;20619;-79
2022/09/04 11:04:44;;;;;;;5.43;3.65;;;;;;;;;;6174847;23;20171;-80
2022/09/04 11:07:16;;;;;;;6.93;4.13;;;;;;;;;;6171987;23;20213;-80
2022/09/04 11:10:06;;;;;;;5.60;3.55;;;;;;;;;;6174597;23;20616;-79
2022/09/04 11:12:39;;;;;;;4.07;3.67;;;;;;;;;;6174491;23;20171;-80
2022/09/04 11:15:24;;;;;;;4.43;3.50;;;;;;;;;;6175001;23;20250;-79
2022/09/04 11:18:08;;;;;;;3.75;3.35;;;;;;;;;;6174251;23;20170;-79
2022/09/04 11:20:34;;;;;;;3.30;3.00;;;;;;;;;;6174769;23;20162;-79
2022/09/04 11:23:18;;;;;;;4.15;3.05;;;;;;;;;;6172964;23;20504;-79
2022/09/04 11:26:22;;;;;;;5.30;3.10;;;23.90;99.90;;;;;;6173180;23;20166;-79
2022/09/04 11:28:59;;;;;;;3.67;3.00;;;23.90;99.90;;;;;;6173631;23;20161;-79
2022/09/04 11:31:45;;;;;;;3.63;2.85;;;24.20;99.90;;;;;;6175122;23;20154;-81
2022/09/04 11:34:32;;;;;;;2.80;2.60;;;24.30;99.90;;;;;;6174941;23;20225;-79
2022/09/04 11:37:22;;;;;;;3.47;2.80;;;24.30;99.90;;;;;;6172865;23;20166;-79
2022/09/04 11:40:21;;;;;;;4.97;2.92;;;24.40;99.90;;;;;;6175210;23;20182;-79
2022/09/04 11:43:09;;;;;;;3.78;3.13;;;24.40;99.90;;;;;;6174875;23;20182;-79
2022/09/04 11:46:11;;;;;;;2.83;2.50;;;24.30;99.90;;;;;;6175122;23;20158;-80
2022/09/04 11:49:13;;;;;;;3.28;2.78;;;24.60;99.90;;;;;;6173414;23;20165;-80
2022/09/04 11:52:11;;;;;;;4.15;3.05;;;24.60;99.90;;;;;;6174445;23;20143;-79
2022/09/04 11:55:07;;;;;;;3.67;3.05;;;24.70;99.90;;;;;;6174494;23;20631;-78
2022/09/04 11:57:54;;;;;;;3.28;2.97;;;24.70;99.90;;;;;;6174328;23;20179;-79
2022/09/04 12:00:19;;;;;;;4.70;3.30;;;24.90;99.90;;;;;;6174289;23;20185;-79
2022/09/04 12:03:14;;;;;;;3.05;2.80;;;24.90;99.90;;;;;;6173855;23;20152;-79
2022/09/04 12:06:01;;;;;;;3.33;2.65;;;24.90;99.90;;;;;;6174938;23;20217;-79
2022/09/04 12:08:47;;;;;;;3.92;2.60;;;24.90;99.90;;;;;;6173052;23;20163;-79
2022/09/04 12:11:51;;;;;;;2.90;2.53;;;25.00;99.90;;;;;;6173011;23;20250;-79
2022/09/04 12:15:01;;;;;;;4.47;2.60;;;25.00;99.90;;;;;;6175179;23;20185;-79
2022/09/04 12:17:55;;;;;;;3.50;2.75;;;25.00;99.90;;;;;;6174298;23;20229;-79
2022/09/04 12:20:41;;;;;;;2.90;2.70;;;25.20;99.90;;;;;;6176647;23;20230;-79
2022/09/04 12:23:30;;;;;;;3.05;2.65;;;25.30;99.90;;;;;;6175883;23;20139;-80
2022/09/04 12:26:00;;;;;;;4.35;2.78;;;25.40;99.90;;;;;;6174174;23;20290;-80
2022/09/04 12:28:50;;;;;;;3.08;2.60;;;25.40;99.90;;;;;;6174295;23;20622;-79
2022/09/04 12:31:34;;;;;;;3.00;2.70;;;25.40;99.90;;;;;;6175974;23;20286;-80
2022/09/04 12:34:19;;;;;;;3.45;2.60;;;25.60;99.90;;;;;;6173535;23;20186;-79
2022/09/04 12:36:58;;;;;;;3.88;3.20;;;25.60;99.90;;;;;;6175867;23;20143;-78
2022/09/04 12:39:23;;;;;;;2.45;2.25;;;25.50;99.90;;;;;;6174660;23;20185;-79
2022/09/04 12:42:18;;;;;;;4.03;2.58;;;25.50;99.90;;;;;;6175790;23;20147;-79
2022/09/04 12:45:07;;;;;;;5.03;4.00;;;25.50;99.90;;;;;;6174856;23;20222;-80
2022/09/04 12:48:03;;;;;;;3.78;2.88;;;25.50;99.90;;;;;;6174613;23;20149;-79
2022/09/04 12:50:35;;;;;;;3.15;2.53;;;25.50;99.90;;;;;;6174779;23;20245;-79
2022/09/04 12:53:14;;;;;;;2.83;2.60;;;25.50;99.90;;;;;;6174750;23;20209;-79
2022/09/04 12:56:02;;;;;;;3.22;2.72;;;25.50;99.90;;;;;;6176557;23;20143;-79
2022/09/04 12:58:58;;;;;;;3.78;2.75;;;25.60;99.90;;;;;;6176289;23;20171;-79
2022/09/04 13:01:37;;;;;;;4.78;3.30;;;25.70;99.90;;;;;;6175845;23;20191;-79
2022/09/04 13:04:22;;;;;;;4.28;2.50;;;25.70;99.90;;;;;;6174131;23;20178;-79
2022/09/04 13:07:08;;;;;;;2.90;2.70;;;25.80;99.90;;;;;;6175581;23;20150;-79
2022/09/04 13:10:08;;;;;;;2.80;2.50;;;25.90;99.90;;;;;;6176088;23;20174;-79
2022/09/04 13:12:36;;;;;;;4.40;2.40;;;26.00;99.90;;;;;;6176231;23;20254;-79
2022/09/04 13:15:25;;;;;;;3.42;2.70;;;25.90;99.90;;;;;;6176018;23;20171;-79
2022/09/04 13:18:17;;;;;;;3.45;2.30;;;25.80;99.90;;;;;;6155249;23;20202;-79
2022/09/04 13:21:04;;;;;;;7.93;3.38;;;25.70;99.90;;;;;;6175935;23;20139;-79
2022/09/04 13:23:58;;;;;;;3.25;2.80;;;25.80;99.90;;;;;;6175923;23;20174;-79
2022/09/04 13:26:42;;;;;;;3.65;2.53;;;25.70;99.90;;;;;;6177230;23;20167;-79
2022/09/04 13:29:49;;;;;;;2.53;2.17;;;25.50;99.90;;;;;;6177103;23;20561;-79
2022/09/04 13:32:29;;;;;;;2.97;2.40;;;25.50;99.90;;;;;;6175852;23;20529;-79
2022/09/04 13:35:10;;;;;;;3.28;2.70;;;25.70;99.90;;;;;;6175837;23;20595;-79
2022/09/04 13:38:20;;;;;;;4.03;3.58;;;25.80;99.90;;;;;;6176377;23;20222;-79
2022/09/04 13:40:59;;;;;;;2.92;2.70;;;25.70;99.90;;;;;;6081810;23;20192;-79
2022/09/04 13:44:03;;;;;;;3.25;2.50;;;25.60;99.90;;;;;;6172965;23;20185;-80
2022/09/04 13:46:35;;;;;;;2.58;2.35;;;25.70;99.90;;;;;;6176354;23;20587;-79
2022/09/04 13:49:06;;;;;;;3.65;2.85;;;25.80;99.90;;;;;;6173651;23;20159;-78
2022/09/04 13:51:36;;;;;;;2.90;2.17;;;25.90;99.90;;;;;;6175619;23;20143;-79
2022/09/04 13:54:16;;;;;;;3.10;2.53;;;26.00;99.90;;;;;;6173972;23;20225;-79
2022/09/04 13:56:43;;;;;;;4.72;2.83;;;26.00;99.90;;;;;;6173069;23;20159;-79
2022/09/04 13:59:15;;;;;;;3.60;2.38;;;26.10;99.90;;;;;;6177098;23;20198;-80
2022/09/04 14:01:48;;;;;;;4.05;3.10;;;26.30;99.90;;;;;;6176600;23;20202;-79
2022/09/04 14:04:35;;;;;;;4.15;3.75;;;26.30;99.90;;;;;;6177266;23;20190;-81
2022/09/04 14:07:07;;;;;;;3.22;2.92;;;26.30;99.90;;;;;;6176704;23;20158;-80
2022/09/04 14:09:41;;;;;;;3.25;2.50;;;26.20;99.90;;;;;;6175120;23;20181;-78
2022/09/04 14:12:09;;;;;;;3.15;2.80;;;26.20;99.90;;;;;;6175978;23;20186;-78
2022/09/04 14:14:47;;;;;;;2.80;2.60;;;26.20;99.90;;;;;;6178158;23;20588;-79
2022/09/04 14:17:15;;;;;;;2.97;2.65;;;26.10;99.90;;;;;;6176502;23;20158;-79
2022/09/04 14:19:53;;;;;;;3.10;2.80;;;26.10;99.90;;;;;;6177546;23;20159;-79
2022/09/04 14:22:43;;;;;;;2.88;2.47;;;26.20;99.90;;;;;;6177649;23;20221;-80
2022/09/04 14:25:28;;;;;;;3.15;2.85;;;26.20;99.90;;;;;;6175515;23;20587;-79
2022/09/04 14:28:19;;;;;;;3.35;2.28;;;26.20;99.90;;;;;;6177317;23;21001;-80
2022/09/04 14:30:56;;;;;;;3.55;2.72;;;26.20;99.90;;;;;;6175810;23;20166;-80
2022/09/04 14:33:34;;;;;;;4.07;2.90;;;26.30;99.90;;;;;;6178022;23;20147;-79
2022/09/04 14:36:11;;;;;;;2.80;2.50;;;26.40;99.90;;;;;;6177730;23;20486;-80
2022/09/04 14:38:58;;;;;;;2.80;2.60;;;26.40;99.90;;;;;;6176586;23;20193;-80
2022/09/04 14:41:31;;;;;;;3.55;2.67;;;26.40;99.90;;;;;;6175812;23;20147;-79
2022/09/04 14:44:12;;;;;;;3.05;2.75;;;26.40;99.90;;;;;;6177223;23;20178;-80
2022/09/04 14:46:59;;;;;;;2.72;2.53;;;26.50;99.90;;;;;;6175283;23;20151;-80
2022/09/04 14:49:30;;;;;;;3.00;2.58;;;26.50;99.90;;;;;;6176486;23;20176;-79
2022/09/04 14:52:01;;;;;;;3.30;2.42;;;26.40;99.90;;;;;;6177367;23;20140;-79
2022/09/04 14:54:29;;;;;;;3.40;3.10;;;26.40;99.90;;;;;;6177470;23;20179;-78
2022/09/04 14:57:01;;;;;;;2.67;2.47;;;26.30;99.90;;;;;;6175647;23;20301;-79
2022/09/04 14:59:34;;;;;;;3.00;2.42;;;26.20;99.90;;;;;;6175760;23;20187;-80
2022/09/04 15:02:28;;;;;;;2.53;2.33;;;26.20;99.90;;;;;;6176118;23;20871;-79
2022/09/04 15:05:01;;;;;;;3.38;2.80;;;26.30;99.90;;;;;;6178262;23;20182;-77
2022/09/04 15:07:48;;;;;;;3.35;3.05;;;26.40;99.90;;;;;;6178378;23;20151;-78
2022/09/04 15:10:25;;;;;;;3.05;2.85;;;26.30;99.90;;;;;;6178384;23;20146;-80
2022/09/04 15:12:53;;;;;;;5.20;2.83;;;26.30;99.90;;;;;;6176487;23;20165;-80
2022/09/04 15:15:30;;;;;;;3.00;2.70;;;26.20;99.90;;;;;;6175320;23;20186;-79
2022/09/04 15:18:08;;;;;;;3.42;2.50;;;26.30;99.90;;;;;;6176799;23;20205;-79
2022/09/04 15:20:36;;;;;;;3.38;2.60;;;26.30;99.90;;;;;;6176559;23;20189;-79